createdAt,value
2023-05-19T00:01:00.421Z,53.85
2023-05-19T00:03:27.507Z,53.85
2023-05-19T00:05:54.789Z,53.80
2023-05-19T00:08:23.681Z,53.81
2023-05-19T00:10:51.110Z,53.87
2023-05-19T00:13:18.261Z,53.84
2023-05-19T00:15:45.592Z,53.74
2023-05-19T00:18:14.305Z,53.51
2023-05-19T00:20:41.425Z,53.54
2023-05-19T00:23:08.394Z,53.58
2023-05-19T00:25:35.088Z,53.58
2023-05-19T00:28:03.199Z,53.42
2023-05-19T00:30:30.881Z,53.59
2023-05-19T00:32:58.077Z,53.59
2023-05-19T00:35:25.004Z,53.65
2023-05-19T00:37:51.659Z,53.72
2023-05-19T00:40:18.580Z,53.64
2023-05-19T00:42:45.928Z,53.76
2023-05-19T00:45:12.585Z,53.71
2023-05-19T00:47:39.642Z,53.71
2023-05-19T00:50:07.309Z,53.81
2023-05-19T00:52:34.124Z,53.84
2023-05-19T00:55:01.173Z,53.86
2023-05-19T00:57:28.838Z,53.76
2023-05-19T00:59:56.605Z,53.81
2023-05-19T01:02:23.388Z,54.04
2023-05-19T01:04:51.818Z,54.03
2023-05-19T01:07:19.082Z,54.05
2023-05-19T01:09:47.475Z,54.02
2023-05-19T01:12:15.025Z,54.08
2023-05-19T01:14:43.133Z,54.20
2023-05-19T01:17:30.639Z,54.30
2023-05-19T01:20:11.146Z,54.36
2023-05-19T01:23:03.547Z,54.43
2023-05-19T01:25:55.061Z,54.41
2023-05-19T01:28:56.344Z,54.40
2023-05-19T01:31:25.659Z,54.45
2023-05-19T01:33:54.260Z,54.62
2023-05-19T01:36:23.347Z,54.48
2023-05-19T01:38:54.027Z,54.66
2023-05-19T01:41:22.448Z,54.75
2023-05-19T01:43:51.962Z,54.74
2023-05-19T01:46:19.330Z,54.70
2023-05-19T01:48:47.675Z,54.90
2023-05-19T01:51:14.530Z,54.85
2023-05-19T01:53:42.711Z,54.75
2023-05-19T01:56:09.635Z,54.74
2023-05-19T01:59:00.939Z,54.71
2023-05-19T02:01:47.723Z,55.02
2023-05-19T02:04:25.473Z,55.03
2023-05-19T02:06:52.149Z,55.04
2023-05-19T02:09:25.577Z,55.10
2023-05-19T02:11:56.222Z,54.99
2023-05-19T02:14:39.471Z,55.05
2023-05-19T02:17:06.468Z,55.01
2023-05-19T02:19:39.447Z,55.00
2023-05-19T02:22:06.971Z,54.99
2023-05-19T02:24:34.009Z,55.03
2023-05-19T02:27:01.084Z,55.06
2023-05-19T02:29:27.937Z,55.11
2023-05-19T02:31:54.733Z,55.07
2023-05-19T02:34:21.534Z,54.95
2023-05-19T02:36:50.094Z,54.97
2023-05-19T02:39:17.226Z,54.94
2023-05-19T02:41:43.868Z,54.93
2023-05-19T02:44:10.709Z,54.82
2023-05-19T02:46:37.842Z,54.87
2023-05-19T02:49:04.606Z,54.95
2023-05-19T02:51:31.557Z,54.84
2023-05-19T02:53:58.248Z,54.97
2023-05-19T02:56:24.890Z,55.02
2023-05-19T02:58:52.722Z,54.81
2023-05-19T03:01:23.277Z,54.77
2023-05-19T03:03:50.069Z,54.76
2023-05-19T03:06:18.244Z,54.61
2023-05-19T03:08:45.162Z,54.49
2023-05-19T03:11:11.978Z,54.53
2023-05-19T03:13:38.812Z,54.56
2023-05-19T03:16:08.444Z,54.45
2023-05-19T03:18:36.280Z,54.42
2023-05-19T03:21:03.201Z,54.37
2023-05-19T03:23:29.879Z,54.45
2023-05-19T03:25:56.907Z,54.35
2023-05-19T03:28:23.893Z,54.55
2023-05-19T03:30:50.930Z,54.37
2023-05-19T03:33:21.139Z,54.37
2023-05-19T03:35:48.152Z,54.34
2023-05-19T03:38:15.165Z,54.20
2023-05-19T03:40:48.934Z,54.16
2023-05-19T03:43:16.303Z,54.17
2023-05-19T03:45:47.244Z,54.30
2023-05-19T03:48:36.631Z,54.33
2023-05-19T03:51:28.766Z,54.23
2023-05-19T03:53:58.419Z,54.23
2023-05-19T03:56:27.563Z,54.25
2023-05-19T03:58:55.142Z,54.24
2023-05-19T04:01:22.178Z,54.14
2023-05-19T04:03:48.851Z,54.06
2023-05-19T04:06:15.781Z,53.92
2023-05-19T04:08:44.376Z,53.68
2023-05-19T04:11:13.020Z,53.75
2023-05-19T04:13:39.883Z,53.59
2023-05-19T04:16:07.607Z,53.59
2023-05-19T04:18:34.584Z,53.64
2023-05-19T04:21:01.952Z,53.59
2023-05-19T04:23:28.642Z,53.55
2023-05-19T04:25:57.189Z,53.52
2023-05-19T04:28:24.423Z,53.42
2023-05-19T04:30:51.681Z,53.51
2023-05-19T04:33:20.223Z,53.68
2023-05-19T04:35:47.614Z,53.59
2023-05-19T04:38:19.127Z,53.69
2023-05-19T04:40:50.177Z,53.76
2023-05-19T04:43:18.388Z,53.96
2023-05-19T04:45:46.775Z,54.12
2023-05-19T04:48:14.121Z,54.29
2023-05-19T04:50:42.335Z,54.31
2023-05-19T04:53:10.298Z,54.34
2023-05-19T04:55:38.961Z,54.30
2023-05-19T04:58:06.646Z,54.42
2023-05-19T05:00:35.883Z,54.44
2023-05-19T05:03:06.058Z,54.41
2023-05-19T05:05:33.401Z,54.34
2023-05-19T05:08:00.502Z,54.44
2023-05-19T05:10:31.070Z,54.62
2023-05-19T05:12:58.853Z,54.64
2023-05-19T05:15:28.888Z,54.68
2023-05-19T05:17:56.653Z,54.65
2023-05-19T05:20:24.307Z,54.72
2023-05-19T05:22:51.490Z,54.77
2023-05-19T05:25:19.908Z,54.85
2023-05-19T05:27:46.779Z,55.07
2023-05-19T05:30:14.010Z,54.95
2023-05-19T05:32:41.583Z,54.85
2023-05-19T05:35:13.457Z,55.00
2023-05-19T05:37:40.198Z,55.07
2023-05-19T05:40:08.580Z,54.88
2023-05-19T05:42:35.743Z,54.70
2023-05-19T05:45:03.320Z,54.83
2023-05-19T05:47:31.815Z,54.59
2023-05-19T05:49:59.779Z,54.38
2023-05-19T05:52:30.702Z,54.42
2023-05-19T05:54:59.353Z,54.45
2023-05-19T05:57:27.350Z,54.63
2023-05-19T05:59:54.229Z,54.67
2023-05-19T06:02:22.071Z,54.48
2023-05-19T06:04:49.218Z,54.43
2023-05-19T06:07:16.694Z,54.11
2023-05-19T06:09:44.702Z,54.14
2023-05-19T06:12:11.624Z,53.98
2023-05-19T06:14:41.913Z,53.78
2023-05-19T06:17:14.926Z,53.73
2023-05-19T06:19:41.760Z,53.56
2023-05-19T06:22:08.519Z,53.33
2023-05-19T06:24:36.250Z,53.39
2023-05-19T06:27:04.746Z,53.43
2023-05-19T06:29:31.433Z,53.03
2023-05-19T06:32:00.729Z,53.09
2023-05-19T06:34:27.510Z,53.07
2023-05-19T06:36:54.169Z,53.17
2023-05-19T06:39:21.468Z,53.34
2023-05-19T06:41:48.213Z,53.24
2023-05-19T06:44:27.201Z,53.33
2023-05-19T06:46:53.905Z,53.23
2023-05-19T06:49:21.002Z,53.31
2023-05-19T06:51:49.401Z,53.43
2023-05-19T06:54:16.525Z,53.49
2023-05-19T06:56:43.505Z,53.36
2023-05-19T06:59:11.016Z,53.37
2023-05-19T07:01:38.156Z,53.17
2023-05-19T07:04:05.326Z,52.99
2023-05-19T07:06:32.064Z,52.74
2023-05-19T07:08:58.860Z,52.84
2023-05-19T07:11:26.698Z,52.99
2023-05-19T07:13:53.847Z,52.90
2023-05-19T07:16:25.233Z,53.00
2023-05-19T07:18:52.332Z,52.88
2023-05-19T07:21:19.221Z,52.43
2023-05-19T07:23:46.555Z,52.73
2023-05-19T07:26:13.367Z,52.93
2023-05-19T07:28:41.723Z,53.05
2023-05-19T07:31:08.574Z,52.96
2023-05-19T07:33:35.461Z,52.86
2023-05-19T07:36:02.513Z,52.71
2023-05-19T07:38:31.603Z,52.54
2023-05-19T07:40:58.290Z,52.55
2023-05-19T07:43:25.017Z,52.17
2023-05-19T07:45:53.915Z,52.21
2023-05-19T07:48:22.547Z,52.16
2023-05-19T07:50:49.548Z,51.95
2023-05-19T07:53:17.013Z,51.80
2023-05-19T07:55:43.790Z,51.89
2023-05-19T07:58:10.531Z,51.97
2023-05-19T08:00:37.926Z,52.06
2023-05-19T08:03:04.819Z,51.95
2023-05-19T08:05:31.696Z,51.65
2023-05-19T08:07:58.482Z,51.96
2023-05-19T08:10:25.223Z,51.94
2023-05-19T08:12:52.078Z,51.70
2023-05-19T08:15:19.624Z,51.32
2023-05-19T08:17:46.373Z,51.23
2023-05-19T08:20:13.527Z,50.68
2023-05-19T08:22:40.452Z,50.73
2023-05-19T08:25:07.798Z,50.71
2023-05-19T08:27:34.449Z,50.47
2023-05-19T08:30:01.179Z,50.38
2023-05-19T08:32:28.267Z,50.08
2023-05-19T08:34:55.081Z,50.01
2023-05-19T08:37:21.956Z,50.03
2023-05-19T08:39:48.837Z,50.05
2023-05-19T08:42:15.783Z,50.11
2023-05-19T08:44:44.186Z,50.28
2023-05-19T08:47:14.045Z,50.32
2023-05-19T08:49:54.991Z,50.04
2023-05-19T08:52:27.783Z,49.97
2023-05-19T08:55:01.312Z,49.93
2023-05-19T08:57:28.936Z,49.79
2023-05-19T08:59:57.143Z,49.53
2023-05-19T09:02:24.602Z,49.48
2023-05-19T09:04:52.851Z,49.82
2023-05-19T09:07:21.336Z,49.97
2023-05-19T09:09:48.841Z,50.02
2023-05-19T09:12:15.509Z,50.50
2023-05-19T09:14:42.537Z,51.01
2023-05-19T09:17:09.838Z,51.25
2023-05-19T09:19:42.564Z,51.51
2023-05-19T09:22:09.179Z,51.62
2023-05-19T09:24:36.311Z,51.81
2023-05-19T09:27:03.163Z,51.72
2023-05-19T09:29:30.308Z,51.99
2023-05-19T09:32:06.456Z,52.12
2023-05-19T09:34:33.414Z,52.31
2023-05-19T09:37:00.299Z,52.23
2023-05-19T09:39:28.939Z,52.51
2023-05-19T09:41:58.810Z,52.77
2023-05-19T09:44:30.513Z,52.60
2023-05-19T09:46:58.694Z,52.66
2023-05-19T09:49:31.308Z,52.90
2023-05-19T09:52:00.045Z,53.21
2023-05-19T09:54:31.359Z,53.38
2023-05-19T09:56:59.315Z,53.42
2023-05-19T09:59:27.595Z,53.56
2023-05-19T10:01:57.245Z,53.74
2023-05-19T10:04:29.842Z,53.90
2023-05-19T10:07:01.078Z,54.00
2023-05-19T10:09:30.534Z,54.15
2023-05-19T10:11:58.618Z,53.88
2023-05-19T10:14:29.642Z,53.75
2023-05-19T10:16:59.884Z,53.58
2023-05-19T10:19:29.971Z,53.75
2023-05-19T10:21:57.639Z,53.65
2023-05-19T10:24:24.608Z,53.43
2023-05-19T10:27:14.605Z,53.40
2023-05-19T10:29:44.400Z,53.56
2023-05-19T10:32:15.889Z,53.24
2023-05-19T10:35:04.184Z,52.60
2023-05-19T10:37:59.076Z,52.21
2023-05-19T10:40:41.294Z,52.31
2023-05-19T10:43:12.036Z,52.18
2023-05-19T10:45:47.714Z,52.25
2023-05-19T10:48:16.741Z,52.29
2023-05-19T10:50:45.993Z,52.15
2023-05-19T10:53:22.956Z,51.73
2023-05-19T10:56:00.117Z,51.58
2023-05-19T10:58:49.316Z,51.36
2023-05-19T11:01:18.206Z,51.38
2023-05-19T11:03:52.162Z,51.38
2023-05-19T11:06:18.980Z,51.84
2023-05-19T11:08:47.998Z,51.82
2023-05-19T11:11:17.724Z,52.21
2023-05-19T11:13:50.588Z,52.53
2023-05-19T11:16:28.404Z,53.26
2023-05-19T11:19:01.625Z,53.05
2023-05-19T11:21:49.214Z,53.42
2023-05-19T11:24:35.288Z,53.42
2023-05-19T11:27:31.731Z,53.46
2023-05-19T11:29:59.604Z,53.72
2023-05-19T11:32:29.062Z,53.58
2023-05-19T11:34:57.161Z,53.44
2023-05-19T11:37:24.326Z,53.53
2023-05-19T11:39:53.061Z,53.73
2023-05-19T11:42:20.357Z,53.79
2023-05-19T11:44:47.394Z,53.47
2023-05-19T11:47:15.203Z,53.34
2023-05-19T11:49:48.240Z,53.23
2023-05-19T11:52:15.443Z,53.18
2023-05-19T11:54:42.217Z,53.48
2023-05-19T11:57:14.071Z,54.17
2023-05-19T11:59:45.852Z,54.44
2023-05-19T12:02:14.189Z,54.74
2023-05-19T12:04:41.194Z,55.10
2023-05-19T12:07:08.315Z,55.45
2023-05-19T12:09:35.806Z,55.50
2023-05-19T12:12:03.037Z,55.48
2023-05-19T12:14:31.380Z,55.67
2023-05-19T12:16:58.522Z,55.60
2023-05-19T12:19:26.230Z,55.47
2023-05-19T12:21:53.892Z,55.47
2023-05-19T12:24:21.982Z,54.99
2023-05-19T12:26:50.504Z,54.96
2023-05-19T12:29:17.570Z,54.98
2023-05-19T12:31:47.608Z,55.05
2023-05-19T12:34:14.498Z,55.47
2023-05-19T12:36:41.818Z,55.66
2023-05-19T12:39:09.783Z,55.45
2023-05-19T12:41:36.705Z,55.36
2023-05-19T12:44:14.848Z,55.18
2023-05-19T12:46:41.532Z,55.35
2023-05-19T12:49:08.177Z,55.68
2023-05-19T12:51:37.077Z,56.00
2023-05-19T12:54:05.028Z,56.47
2023-05-19T12:56:31.891Z,57.39
2023-05-19T12:59:00.998Z,57.51
2023-05-19T13:01:29.897Z,57.24
2023-05-19T13:03:57.470Z,57.66
2023-05-19T13:06:35.171Z,57.47
2023-05-19T13:09:02.299Z,57.52
2023-05-19T13:11:29.589Z,57.89
2023-05-19T13:13:57.828Z,58.12
2023-05-19T13:16:24.538Z,58.35
2023-05-19T13:18:51.767Z,58.87
2023-05-19T13:21:18.905Z,58.59
2023-05-19T13:23:46.470Z,58.46
2023-05-19T13:26:13.560Z,58.71
2023-05-19T13:28:40.437Z,59.40
2023-05-19T13:31:07.357Z,59.16
2023-05-19T13:33:34.340Z,59.86
2023-05-19T13:36:01.074Z,60.46
2023-05-19T13:38:27.854Z,60.79
2023-05-19T13:40:54.864Z,60.85
2023-05-19T13:43:21.813Z,60.92
2023-05-19T13:45:49.413Z,61.18
2023-05-19T13:48:16.256Z,61.86
2023-05-19T13:50:42.983Z,61.98
2023-05-19T13:53:11.675Z,62.52
2023-05-19T13:55:38.597Z,62.58
2023-05-19T13:58:05.368Z,62.83
2023-05-19T14:00:32.919Z,63.15
2023-05-19T14:03:00.695Z,63.58
2023-05-19T14:05:29.151Z,63.58
2023-05-19T14:07:56.061Z,63.61
2023-05-19T14:10:22.885Z,63.64
2023-05-19T14:13:25.381Z,64.15
2023-05-19T14:15:38.324Z,64.31
2023-05-19T14:18:06.570Z,63.98
2023-05-19T14:20:34.317Z,64.01
2023-05-19T14:23:01.437Z,64.00
2023-05-19T14:25:28.102Z,64.07
2023-05-19T14:27:54.782Z,64.32
2023-05-19T14:30:21.460Z,65.62
2023-05-19T14:32:48.107Z,66.59
2023-05-19T14:35:14.906Z,67.31
2023-05-19T14:37:41.538Z,68.34
2023-05-19T14:40:08.860Z,69.01
2023-05-19T14:42:35.668Z,69.16
2023-05-19T14:45:02.380Z,69.93
2023-05-19T14:47:29.197Z,70.05
2023-05-19T14:49:56.133Z,70.48
2023-05-19T14:52:23.095Z,71.15
2023-05-19T14:54:49.824Z,71.20
2023-05-19T14:57:16.443Z,71.46
2023-05-19T14:59:43.128Z,71.31
2023-05-19T15:02:11.544Z,71.39
2023-05-19T15:04:38.306Z,71.68
2023-05-19T15:07:10.304Z,72.04
2023-05-19T15:09:38.045Z,72.29
2023-05-19T15:12:04.928Z,72.22
2023-05-19T15:14:31.624Z,71.96
2023-05-19T15:16:59.045Z,71.68
2023-05-19T15:19:26.196Z,71.22
2023-05-19T15:21:53.061Z,71.39
2023-05-19T15:24:19.818Z,71.46
2023-05-19T15:26:47.406Z,71.60
2023-05-19T15:29:14.127Z,71.98
2023-05-19T15:31:41.341Z,71.43
2023-05-19T15:34:08.319Z,70.99
2023-05-19T15:36:35.032Z,70.97
2023-05-19T15:39:01.916Z,71.00
2023-05-19T15:41:28.651Z,70.94
2023-05-19T15:43:55.365Z,70.94
2023-05-19T15:46:23.030Z,71.42
2023-05-19T15:48:49.913Z,71.63
2023-05-19T15:51:16.783Z,71.64
2023-05-19T15:53:43.829Z,72.06
2023-05-19T15:56:10.784Z,71.76
2023-05-19T15:58:37.544Z,71.50
2023-05-19T16:01:04.974Z,72.04
2023-05-19T16:03:32.700Z,72.38
2023-05-19T16:06:01.056Z,72.74
2023-05-19T16:08:28.246Z,73.04
2023-05-19T16:10:55.500Z,72.84
2023-05-19T16:13:22.217Z,72.95
2023-05-19T16:15:48.944Z,72.64
2023-05-19T16:18:16.333Z,72.99
2023-05-19T16:20:44.192Z,73.37
2023-05-19T16:23:10.913Z,73.78
2023-05-19T16:25:37.548Z,74.42
2023-05-19T16:28:04.482Z,74.32
2023-05-19T16:30:31.306Z,74.51
2023-05-19T16:32:58.260Z,74.28
2023-05-19T16:35:24.981Z,74.18
2023-05-19T16:37:51.744Z,74.02
2023-05-19T16:40:18.458Z,73.73
2023-05-19T16:42:45.413Z,73.92
2023-05-19T16:45:12.128Z,74.29
2023-05-19T16:47:38.826Z,74.45
2023-05-19T16:50:06.660Z,74.72
2023-05-19T16:52:33.319Z,74.60
2023-05-19T16:55:00.107Z,74.42
2023-05-19T16:57:26.833Z,74.51
2023-05-19T16:59:53.566Z,74.80
2023-05-19T17:02:20.408Z,74.95
2023-05-19T17:04:47.148Z,74.89
2023-05-19T17:07:15.837Z,74.81
2023-05-19T17:09:43.424Z,75.17
2023-05-19T17:12:10.495Z,75.06
2023-05-19T17:14:37.243Z,74.78
2023-05-19T17:17:04.236Z,74.75
2023-05-19T17:19:31.579Z,74.62
2023-05-19T17:21:58.418Z,74.99
2023-05-19T17:24:25.138Z,75.35
2023-05-19T17:26:51.813Z,75.75
2023-05-19T17:29:19.307Z,75.77
2023-05-19T17:31:45.982Z,75.78
2023-05-19T17:34:12.618Z,75.94
2023-05-19T17:36:39.240Z,76.01
2023-05-19T17:39:06.042Z,75.88
2023-05-19T17:41:32.777Z,76.03
2023-05-19T17:43:59.514Z,75.79
2023-05-19T17:46:26.525Z,75.50
2023-05-19T17:48:53.212Z,75.25
2023-05-19T17:51:20.147Z,74.93
2023-05-19T17:53:47.179Z,74.36
2023-05-19T17:56:14.273Z,73.59
2023-05-19T17:58:41.735Z,72.84
2023-05-19T18:01:08.765Z,72.61
2023-05-19T18:03:36.134Z,73.18
2023-05-19T18:06:03.225Z,72.76
2023-05-19T18:08:32.353Z,73.25
2023-05-19T18:11:00.348Z,75.24
2023-05-19T18:13:27.024Z,73.14
2023-05-19T18:15:53.908Z,72.36
2023-05-19T18:18:20.856Z,72.15
2023-05-19T18:20:48.444Z,72.24
2023-05-19T18:23:15.142Z,72.12
2023-05-19T18:25:48.924Z,71.78
2023-05-19T18:28:15.864Z,71.98
2023-05-19T18:30:43.794Z,72.48
2023-05-19T18:33:10.923Z,73.12
2023-05-19T18:35:37.700Z,73.42
2023-05-19T18:38:04.396Z,73.44
2023-05-19T18:40:31.609Z,73.47
2023-05-19T18:42:58.493Z,73.78
2023-05-19T18:45:25.639Z,73.79
2023-05-19T18:47:52.397Z,73.79
2023-05-19T18:50:19.253Z,74.06
2023-05-19T18:52:45.895Z,74.65
2023-05-19T18:55:12.561Z,74.68
2023-05-19T18:57:39.220Z,74.84
2023-05-19T19:00:06.638Z,74.84
2023-05-19T19:02:33.510Z,74.71
2023-05-19T19:05:00.342Z,74.73
2023-05-19T19:07:27.882Z,74.88
2023-05-19T19:09:54.649Z,74.99
2023-05-19T19:12:21.381Z,75.10
2023-05-19T19:14:48.112Z,74.90
2023-05-19T19:17:15.478Z,74.89
2023-05-19T19:19:42.473Z,74.75
2023-05-19T19:22:09.377Z,74.93
2023-05-19T19:24:36.131Z,74.78
2023-05-19T19:27:03.038Z,74.91
2023-05-19T19:29:30.002Z,74.90
2023-05-19T19:31:57.077Z,75.13
2023-05-19T19:34:23.875Z,75.14
2023-05-19T19:36:50.717Z,75.17
2023-05-19T19:39:17.486Z,75.09
2023-05-19T19:41:44.368Z,74.81
2023-05-19T19:44:11.106Z,74.69
2023-05-19T19:46:37.829Z,74.64
2023-05-19T19:49:04.660Z,74.45
2023-05-19T19:51:31.792Z,74.00
2023-05-19T19:53:59.113Z,73.69
2023-05-19T19:56:27.755Z,73.22
2023-05-19T19:58:56.927Z,72.34
2023-05-19T20:01:28.224Z,72.13
2023-05-19T20:03:55.995Z,71.89
2023-05-19T20:06:22.961Z,72.07
2023-05-19T20:08:50.212Z,71.87
2023-05-19T20:11:17.000Z,71.58
2023-05-19T20:13:43.821Z,71.53
2023-05-19T20:16:10.743Z,71.14
2023-05-19T20:18:37.550Z,71.23
2023-05-19T20:21:04.340Z,71.56
2023-05-19T20:23:31.304Z,71.58
2023-05-19T20:26:10.893Z,72.06
2023-05-19T20:28:39.692Z,72.36
2023-05-19T20:31:06.671Z,72.49
2023-05-19T20:33:33.324Z,72.15
2023-05-19T20:35:59.992Z,72.20
2023-05-19T20:38:26.778Z,72.19
2023-05-19T20:40:54.655Z,72.14
2023-05-19T20:43:21.788Z,72.31
2023-05-19T20:45:48.619Z,72.64
2023-05-19T20:48:17.974Z,72.76
2023-05-19T20:50:44.654Z,72.90
2023-05-19T20:53:11.352Z,72.93
2023-05-19T20:55:39.127Z,73.10
2023-05-19T20:58:06.000Z,73.16
2023-05-19T21:00:33.060Z,73.34
2023-05-19T21:03:00.371Z,73.55
2023-05-19T21:05:27.289Z,73.65
2023-05-19T21:07:54.024Z,73.86
2023-05-19T21:10:20.707Z,74.05
2023-05-19T21:12:47.585Z,74.18
2023-05-19T21:15:14.325Z,74.03
2023-05-19T21:17:41.190Z,74.11
2023-05-19T21:20:08.792Z,74.11
2023-05-19T21:22:38.564Z,74.37
2023-05-19T21:25:06.284Z,74.32
2023-05-19T21:27:35.659Z,74.11
2023-05-19T21:30:02.593Z,74.33
2023-05-19T21:32:29.877Z,74.04
2023-05-19T21:34:56.522Z,73.79
2023-05-19T21:37:23.169Z,73.81
2023-05-19T21:39:49.879Z,74.05
2023-05-19T21:42:16.587Z,73.22
2023-05-19T21:44:43.271Z,72.63
2023-05-19T21:47:09.986Z,72.15
2023-05-19T21:49:38.340Z,71.86
2023-05-19T21:52:05.351Z,71.42
2023-05-19T21:54:31.985Z,71.19
2023-05-19T21:56:58.627Z,71.05
2023-05-19T21:59:26.347Z,71.18
2023-05-19T22:01:53.061Z,71.07
2023-05-19T22:04:21.372Z,70.76
2023-05-19T22:06:48.083Z,70.50
2023-05-19T22:09:14.788Z,70.33
2023-05-19T22:11:41.832Z,69.65
2023-05-19T22:14:08.547Z,69.23
2023-05-19T22:16:35.233Z,68.87
2023-05-19T22:19:01.993Z,68.71
2023-05-19T22:21:28.797Z,68.38
2023-05-19T22:23:55.734Z,68.34
2023-05-19T22:26:22.441Z,68.29
2023-05-19T22:28:50.417Z,68.11
2023-05-19T22:31:17.742Z,68.01
2023-05-19T22:33:44.849Z,67.37
2023-05-19T22:36:11.694Z,67.00
2023-05-19T22:38:38.443Z,66.56
2023-05-19T22:41:05.796Z,66.35
2023-05-19T22:43:32.541Z,66.25
2023-05-19T22:46:02.310Z,65.77
2023-05-19T22:48:28.948Z,65.50
2023-05-19T22:50:55.713Z,65.55
2023-05-19T22:53:22.449Z,64.50
2023-05-19T22:55:49.171Z,64.38
2023-05-19T22:58:15.880Z,64.31
2023-05-19T23:00:42.621Z,63.71
2023-05-19T23:03:09.328Z,63.57
2023-05-19T23:05:36.163Z,63.40
2023-05-19T23:08:03.133Z,63.56
2023-05-19T23:10:29.875Z,63.69
2023-05-19T23:12:56.603Z,63.72
2023-05-19T23:15:23.297Z,63.47
2023-05-19T23:17:49.986Z,63.63
2023-05-19T23:20:16.803Z,63.43
2023-05-19T23:22:43.423Z,63.23
2023-05-19T23:25:10.219Z,63.16
2023-05-19T23:27:37.024Z,62.73
2023-05-19T23:30:04.379Z,62.25
2023-05-19T23:32:31.310Z,62.16
2023-05-19T23:34:57.963Z,62.50
2023-05-19T23:37:24.665Z,62.32
2023-05-19T23:39:51.524Z,62.39
2023-05-19T23:42:18.250Z,62.18
2023-05-19T23:44:44.962Z,62.13
2023-05-19T23:47:11.692Z,61.63
2023-05-19T23:49:38.519Z,61.02
2023-05-19T23:52:05.552Z,61.14
2023-05-19T23:54:32.224Z,61.03
2023-05-19T23:56:59.536Z,60.92
2023-05-19T23:59:26.214Z,60.99
